Leonardo Rodrigues

Olheiro-Chefe - Internacional
28 Mai 2028
Domingo
Processo

Personalidade

Adaptabilidade (14) Ambição (19) Controvérsia (1) Lealdade (8) Pressão (6) Profissionalismo (10) Espírito Esportivo (4) Temperamento (5)

Perfil

Estilo de Treinamento Democrático
Licença Continental B
Determinação 8
Gestão de Pessoas 7
Motivação 7
Disciplina 11
Satisfação no Trabalho
88%
Fadiga
0%
Função Olheiro-Chefe
Salário 24.4K p/s
Contrato 14.03.2030

Desempenho

Comportamento Bom
Eficácia do Treinamento
43%
Desenvolvimento do Jogador
55%
Prevenção de Lesões
45%
Implementação Tática
50%

Eventos Recentes

Avaliou um jogador agora
Participou de uma reunião de recrutamento agora
Participou de uma reunião de recrutamento agora
Recomendou um alvo de transferência agora
Avaliou um jogador 7d atrás
Avaliou um jogador 7d atrás
Avaliou um jogador 7d atrás
Avaliou um jogador 7d atrás

Monitorando agora

287
Jogador Clube Status Habilidade Confiança Observado Última observação Último voto
Kasey McAteer Barnsley Ativo 144 / 134 40% 3 24.05.2028 -
Samuel Edozie Southampton Ativo 133 / 130 40% 1 24.05.2028 -
Dango Ouattara Leicester City Ativo 145 / 153 40% 12 23.05.2028 -
Vinícius Júnior Paris Saint-Germain Ativo 184 / 180 40% 9 23.05.2028 -
Kevin Fulham Ativo 151 / 152 40% 3 22.05.2028 -
Bryan Gil Girona Ativo 157 / 151 40% 6 22.05.2028 -
Brennan Johnson Middlesbrough Ativo 164 / 148 40% 2 20.05.2028 -
Silko Thomas Rotherham United Ativo 111 / 121 40% 1 20.05.2028 -
Morgan Whittaker Bristol Rovers Ativo 140 / 136 40% 6 18.05.2028 -
Carlos Alcaraz Stoke City Ativo 140 / 149 40% 4 17.05.2028 -
Malick Fofana Sunderland Ativo 160 / 152 40% 4 14.05.2028 -
Louie Barry Sheffield Wednesday Ativo 131 / 128 40% 3 14.05.2028 -
Jaden Philogene Wolverhampton Ativo 140 / 144 40% 6 12.05.2028 -
Mikkel Damsgaard Brentford Ativo 167 / 154 40% 4 10.05.2028 -
Borja Sainz Udinese Ativo 150 / 149 40% 2 09.05.2028 -
Tyreece Campbell Charlton Athletic Ativo 115 / 124 40% 1 06.05.2028 -
Koki Saito Queens Park Rangers Ativo 147 / 132 40% 5 04.05.2028 -
Emile Smith Rowe Cardiff City Ativo 159 / 154 40% 5 03.05.2028 -
Moisés Caicedo Chelsea Ativo 179 / 172 40% 2 03.05.2028 -
Adrián Liso Zaragoza Ativo 145 / 136 40% 3 02.05.2028 -
João Pedro Chelsea Ativo 158 / 156 40% 3 28.04.2028 -
Makan Aïko Tondela Ativo 137 / 121 40% 4 26.04.2028 -
Mohamed-Ali Cho Hull City Ativo 148 / 142 40% 6 20.04.2028 -
Abdoul Ouattara Port Vale Ativo 127 / 135 40% 2 18.04.2028 -
Gabriel Mec Feirense Ativo 115 / 127 40% 3 16.04.2028 -
Ben Gannon Doak Charlton Athletic Ativo 138 / 155 40% 9 14.04.2028 -
Chemsdine Talbi Sunderland Ativo 155 / 154 40% 2 13.04.2028 -
Erick Pulga Bahia Ativo 146 / 131 40% 7 13.04.2028 -
Yeremy Pino Crystal Palace Ativo 146 / 156 40% 4 03.04.2028 -
Rodrigo Nestor Bahia Ativo 121 / 130 40% 2 02.04.2028 Mais informações
Henry Mosquera Bragantino Ativo 128 / 131 40% 5 27.03.2028 -
Marino Hinestroza Bahia Ativo 143 / 130 40% 7 27.03.2028 -
Callum Hudson-Odoi Nottingham Forest Ativo 156 / 152 40% 1 24.03.2028 -
Gonzalo Fulham Ativo 140 / 152 40% 5 22.03.2028 -
Andrés Gómez Vasco da Gama Ativo 144 / 141 40% 2 20.03.2028 -
Benjamín Rollheiser Santos Ativo 132 / 132 40% 3 10.03.2028 -
Agustín Giay Palmeiras Ativo 135 / 134 40% 3 03.03.2028 -
João Costa Al-Ettifaq Ativo 106 / 119 40% 2 02.03.2028 -
Cristian Medina Botafogo Ativo 121 / 130 40% 1 02.03.2028 -
Fábio Carvalho Brentford Ativo 160 / 145 40% 3 27.02.2028 -
Pedro de la Vega Columbus Crew Ativo 132 / 137 40% 5 26.02.2028 -
Maurício Palmeiras Ativo 127 / 135 40% 3 26.02.2028 -
Wesley Al-Nassr Ativo 129 / 123 40% 1 25.02.2028 -
Gustavo Neves Bragantino Ativo 133 / 133 40% 4 23.02.2028 -
André Luiz Sporting Kansas City Ativo 147 / 132 40% 2 21.02.2028 -
Danilo Botafogo Ativo 149 / 142 40% 3 20.02.2028 -
Antony Portland Timbers Ativo 123 / 134 40% 2 19.02.2028 -
Nicolas Jackson Aston Villa Ativo 154 / 152 40% 5 17.02.2028 -
Álvaro Barreal Atlético Mineiro Ativo 131 / 132 40% 1 10.02.2028 -
Xavier Biscayzacú Defensor Sporting Ativo 120 / 130 40% 2 09.02.2028 -
Liel Abada Inter Miami CF Ativo 141 / 136 40% 2 03.02.2028 -
Franco Vedoya Central Norte Ativo 124 / 115 40% 1 27.01.2028 -
Rodrigo González Mitre Ativo 126 / 117 40% 2 25.01.2028 -
Iñaki Larthirigoyen San Telmo Ativo 129 / 119 40% 1 22.01.2028 -
Vinicius Zanocelo Ceará Ativo 125 / 125 40% 1 21.01.2028 -
Gabriel Pec Cruzeiro Ativo 129 / 133 40% 2 19.01.2028 -
Bénie Traoré New York City Ativo 127 / 129 40% 1 15.01.2028 -
Alex Luna Instituto Ativo 129 / 132 40% 2 13.01.2028 -
Telasco Segovia Inter Miami CF Ativo 122 / 133 40% 2 11.01.2028 -
Alejo Cruz Juventud Ativo 123 / 120 40% 1 11.01.2028 -
David Da Costa Portland Timbers Ativo 136 / 130 40% 1 08.01.2028 -
Lucas Villalba Botafogo Ativo 118 / 128 40% 1 08.12.2027 -
Kévin Denkey FC Cincinnati Ativo 133 / 126 40% 1 08.12.2027 -
Eric Ramires Bragantino Ativo 114 / 125 51% 1 07.12.2027 -
Ousmane Diomande Nottingham Forest Ativo 175 / 158 40% 4 02.12.2027 -
Lucas Silva Fortaleza Ativo 102 / 108 51% 1 02.12.2027 -
Bafodé Diakité Plymouth Argyle Ativo 153 / 144 40% 1 02.12.2027 -
Lautaro Di Lollo Boca Juniors Ativo 146 / 134 40% 4 28.11.2027 -
El Hadji Malick Diouf Inter Ativo 142 / 152 40% 2 28.11.2027 -
Ignacio Perruzzi San Lorenzo Ativo 124 / 128 40% 3 26.11.2027 -
Jhon Solís Birmingham Ativo 137 / 136 40% 1 26.11.2027 -
Nobel Mendy Hull City Ativo 130 / 144 40% 1 20.11.2027 -
Kauã Moraes Flamengo Ativo 120 / 128 40% 1 20.11.2027 -
Alexsander Atlético Mineiro Ativo 139 / 131 40% 2 18.11.2027 -
Álex Valle Boca Juniors Ativo 132 / 142 40% 2 18.11.2027 -
Lucas Sanabria LA Galaxy Ativo 131 / 134 40% 3 17.11.2027 -
Honest Ahanor Atalanta Ativo 119 / 140 40% 1 17.11.2027 -
Brooke Norton-Cuffy Hull City Ativo 153 / 147 40% 6 15.11.2027 -
Lamare Bogarde Reading Ativo 140 / 138 40% 4 15.11.2027 -
Breno Bidon Corinthians Ativo 128 / 132 40% 2 13.11.2027 -
Gonçalo Nogueira Vitoria Guimaraes Ativo 128 / 127 40% 1 12.11.2027 -
Alex Scott Bournemouth Ativo 156 / 159 40% 5 11.11.2027 -
Jack Hinshelwood Watford Ativo 144 / 157 40% 3 09.11.2027 -
Michael Kayode Brentford Ativo 159 / 153 40% 4 09.11.2027 -
Nicolás Romero Minnesota United FC Ativo 127 / 131 40% 3 08.11.2027 -
Samuele Angori Red Bull Salzburg Ativo 128 / 139 40% 1 08.11.2027 -
Andrey Santos Bolton Wanderers Ativo 138 / 146 40% 1 06.11.2027 -
Ayden Heaven Portsmouth Ativo 151 / 149 40% 1 05.11.2027 -
Noah Sadiki Sunderland Ativo 165 / 152 40% 1 05.11.2027 -
Toby Collyer West Bromwich Albion Ativo 122 / 139 40% 2 31.10.2027 -
Ronnie Edwards Queens Park Rangers Ativo 122 / 133 40% 2 31.10.2027 -
Levi Colwill Chelsea Ativo 170 / 163 40% 4 28.10.2027 -
Yehor Yarmoliuk Brentford Ativo 146 / 158 40% 2 27.10.2027 -
Abdukodir Khusanov Oxford United Ativo 155 / 161 40% 3 22.10.2027 -
Fredrik Sjøvold Bodo/Glimt Ativo 155 / 138 40% 2 20.10.2027 -
Max Johnston Derby County Ativo 132 / 136 40% 2 16.10.2027 -
Yasin Ayari Middlesbrough Ativo 137 / 149 40% 3 15.10.2027 -
Carlos Baleba Norwich City Ativo 144 / 160 40% 1 15.10.2027 -
César Pérez Defensa y Justicia Ativo 116 / 126 40% 3 13.10.2027 -
Henrik Falchener Viking Ativo 108 / 127 40% 2 11.10.2027 -
Arthur Peixoto Astra Ativo 142 / 128 40% 4 10.10.2027 -
Shea Charles Southampton Ativo 148 / 148 40% 2 09.10.2027 -
Nectar Triantis Minnesota United FC Ativo 116 / 132 40% 2 06.10.2027 -
Jorrel Hato Chelsea Ativo 142 / 158 40% 1 04.10.2027 -
Adam Wharton Crystal Palace Ativo 175 / 159 40% 3 30.09.2027 -
Lewis Hall Newcastle United Ativo 166 / 154 40% 2 24.09.2027 -
Santiago González Tigre Ativo 120 / 129 40% 1 24.09.2027 -
Robert Renan Zenit Ativo 114 / 132 40% 3 22.09.2027 -
Cauan Barros Flamengo Ativo 119 / 128 40% 3 21.09.2027 -
Roméo Lavia Chelsea Ativo 136 / 160 40% 1 20.09.2027 -
Habib Diarra Sunderland Ativo 153 / 147 40% 1 16.09.2027 -
Kaiki Cruzeiro Ativo 148 / 131 40% 2 14.09.2027 -
Demir Ege Tıknaz Braga Ativo 116 / 131 40% 1 12.09.2027 -
Malo Gusto Chelsea Ativo 140 / 155 40% 1 11.09.2027 -
Tino Livramento Newcastle United Ativo 169 / 164 40% 1 11.09.2027 -
Patrick Dorgu Bristol City Ativo 162 / 152 40% 1 09.09.2027 -
Ben Nelson Leicester City Ativo 140 / 142 40% 2 06.09.2027 -
Mbekezeli Mbokazi Chicago Fire Ativo 110 / 133 40% 1 29.08.2027 -
Juanlu Bournemouth Ativo 153 / 152 40% 2 28.08.2027 -
Mamadou Coulibaly Al Jazira Ativo 119 / 131 40% 2 27.08.2027 -
Danilo Veiga Lecce Ativo 133 / 129 40% 2 19.08.2027 -
Bjorn Meijer Sampdoria Ativo 113 / 126 40% 1 18.08.2027 -
Cesare Casadei Torino Ativo 147 / 145 40% 1 17.08.2027 -
Nicolò Bertola Udinese Ativo 159 / 144 40% 1 11.08.2027 -
Ollie Scarles West Ham United Ativo 149 / 139 40% 2 09.08.2027 -
Junior Tchamadeu Stoke City Ativo 146 / 127 40% 1 08.08.2027 -
Harvey Vale Queens Park Rangers Ativo 125 / 127 40% 1 04.08.2027 -
Justin Devenny Stoke City Ativo 145 / 130 40% 1 12.07.2027 -
Destiny Udogie Tottenham Ativo 152 / 157 40% 1 07.07.2027 -
Quinten Timber Crystal Palace Ativo 154 / 157 40% 1 29.06.2027 -
Jacob Greaves Ipswich Town Ativo 153 / 140 40% 1 29.06.2027 -
Mats Wieffer Brighton Ativo 145 / 148 40% 1 02.06.2027 -
Thiago Almada LOSC Lille Negociando 145 / 146 69% 1 01.06.2027 Aprovar
Solly March Brighton Ativo 167 / 151 40% 3 30.05.2027 -
Dara O'Shea Ipswich Town Ativo 124 / 137 40% 1 30.05.2027 -
Jarrad Branthwaite Everton Ativo 158 / 158 40% 1 30.05.2027 -
Jørgen Strand Larsen Brighton Ativo 153 / 144 40% 2 26.05.2027 -
Morgan Gibbs-White Nottingham Forest Ativo 170 / 158 40% 4 26.05.2027 -
John McGinn Aston Villa Ativo 152 / 142 40% 1 26.05.2027 -
Isaiah Jones Luton Town Ativo 117 / 125 40% 1 24.05.2027 -
Thiago Brentford Ativo 164 / 145 40% 1 22.05.2027 -
Georginio Rutter Brighton Ativo 145 / 148 40% 4 21.05.2027 -
Igor Jesus Nottingham Forest Ativo 158 / 139 40% 5 21.05.2027 -
Giacomo Raspadori Atalanta Ativo 150 / 151 40% 3 19.05.2027 -
Carlos Vicente Birmingham Ativo 149 / 142 40% 1 19.05.2027 -
Amadou Onana Aston Villa Ativo 145 / 158 40% 2 16.05.2027 -
Jason Knight Bristol City Ativo 115 / 124 40% 1 15.05.2027 -
Joe Gelhardt Hull City Ativo 142 / 130 40% 2 14.05.2027 -
Manu Koné AS Roma Ativo 178 / 159 40% 2 13.05.2027 -
Florentino Luís Ipswich Town Ativo 127 / 140 40% 1 13.05.2027 -
Harry Wilson Leeds United Ativo 147 / 146 40% 1 08.05.2027 -
Assane Diao Como Ativo 132 / 147 40% 6 07.05.2027 -
Óscar Mingueza Crystal Palace Ativo 137 / 146 40% 2 05.05.2027 -
Marcus Edwards Burnley Ativo 126 / 138 40% 1 05.05.2027 -
Ismaïla Sarr Crystal Palace Ativo 144 / 146 40% 1 04.05.2027 -
Adam Randell Bristol City Ativo 123 / 132 40% 1 04.05.2027 -
Maxence Lacroix Chelsea Ativo 145 / 144 40% 1 04.05.2027 -
Brian Brobbey Sunderland Ativo 152 / 146 40% 2 02.05.2027 -
Taty Castellanos West Ham United Ativo 148 / 144 40% 3 01.05.2027 -
Tammy Abraham Aston Villa Ativo 148 / 139 40% 4 01.05.2027 -
Jarrod Bowen West Ham United Ativo 153 / 149 40% 1 30.04.2027 -
Mohammed Kudus Tottenham Ativo 144 / 155 40% 2 29.04.2027 -
Gianluca Scamacca Atalanta Ativo 138 / 147 40% 5 26.04.2027 -
Kevin Schade Chelsea Ativo 143 / 155 40% 1 26.04.2027 -
Gonçalo Ramos AC Milan Ativo 157 / 156 40% 2 25.04.2027 -
Julián Quiñones Al-Qadisiyah Ativo 149 / 141 40% 11 23.04.2027 -
Soungoutou Magassa West Ham United Ativo 130 / 134 40% 1 23.04.2027 -
Khéphren Thuram Juventus Ativo 144 / 160 40% 1 16.04.2027 -
Diego Enríquez Sporting Cristal Ativo 137 / 134 40% 1 16.04.2027 -
Joseph Leclercq Tottenham Ativo 165 / 158 40% 1 16.04.2027 -
João Félix Dinamo Moscow Ativo 165 / 153 40% 5 12.04.2027 -
Eduardo Lozano Botafogo Ativo 148 / 146 40% 5 11.04.2027 -
Tasos Douvikas Como Ativo 160 / 144 40% 5 10.04.2027 -
Santiago Castro AS Roma Ativo 128 / 151 40% 4 10.04.2027 -
Ollie Watkins Al-Hilal Ativo 159 / 145 40% 6 08.04.2027 -
Che Adams Torino Ativo 126 / 140 40% 9 08.04.2027 -
Welington Southampton Ativo 117 / 123 40% 1 07.04.2027 -
Piotr Zieliński Inter Ativo 154 / 149 40% 1 07.04.2027 -
Pedro Flamengo Ativo 142 / 145 40% 11 06.04.2027 -
Juan Brunetta Chicago Fire Ativo 130 / 133 40% 2 05.04.2027 -
Oli McBurnie Hull City Ativo 131 / 134 40% 2 02.04.2027 -
Hidemasa Morita Hull City Ativo 137 / 145 40% 1 02.04.2027 -
Leon Goretzka Aston Villa Ativo 157 / 157 40% 1 31.03.2027 -
Roberto Fernández Braga Ativo 124 / 138 40% 7 27.03.2027 -
Marcelo Allende Mamelodi Sundowns Ativo 140 / 132 40% 1 27.03.2027 -
Robin Roefs Sunderland Ativo 160 / 151 40% 3 26.03.2027 -
João Carvalho Estoril Praia Ativo 138 / 128 40% 2 24.03.2027 -
Carlos Forbs Club Brugge Ativo 142 / 137 40% 5 24.03.2027 -
Sorriso Famalicao Ativo 139 / 127 40% 1 19.03.2027 -
Steven Bergwijn Al-Ittihad Ativo 133 / 144 40% 11 18.03.2027 -
André-Franck Zambo Anguissa Napoli Ativo 167 / 155 40% 1 17.03.2027 -
Matthew Targett Hull City Ativo 136 / 133 40% 1 17.03.2027 -
Mateo Pellegrino Fiorentina Ativo 125 / 141 40% 5 12.03.2027 -
Rodrigo Muniz Fulham Ativo 130 / 147 40% 2 10.03.2027 -
Jean-Baptiste Gorby Braga Ativo 125 / 132 40% 2 10.03.2027 -
Milan van Ewijk Coventry City Ativo 129 / 138 40% 1 10.03.2027 -
João Palhinha Benfica Ativo 157 / 157 40% 4 01.03.2027 -
Mathias De Amorim Famalicao Ativo 112 / 138 40% 3 01.03.2027 -
Gianluca Prestianni Benfica Ativo 151 / 140 40% 2 01.03.2027 -
Santi García Gil Vicente Ativo 142 / 136 40% 1 01.03.2027 -
Mojmír Chytil Slavia Prague Ativo 121 / 127 40% 3 28.02.2027 -
Franculino Brighton Ativo 124 / 134 40% 1 28.02.2027 -
Fredrik Aursnes Benfica Ativo 145 / 151 40% 3 27.02.2027 -
Álex Berenguer Lokomotiv Moscow Ativo 140 / 155 40% 4 27.02.2027 -
Tariq Lamptey Queens Park Rangers Ativo 129 / 134 40% 1 27.02.2027 -
Ángel Correa River Plate Ativo 133 / 143 40% 2 25.02.2027 -
Kenny Tete Fulham Ativo 148 / 143 40% 2 25.02.2027 -
Jan Bednarek Porto Ativo 134 / 142 40% 2 25.02.2027 -
Enzo Barrenechea Benfica Ativo 140 / 142 40% 2 19.02.2027 -
Matías Fernández-Pardo Chelsea Ativo 129 / 140 40% 1 13.02.2027 -
Nuno Santos Sporting CP Ativo 158 / 144 40% 1 11.02.2027 -
Andrea Pinamonti Lazio Ativo 129 / 129 40% 2 08.02.2027 -
Carlos Álvarez Club America Ativo 129 / 141 40% 1 08.02.2027 -
Pablo Rosario Porto Ativo 154 / 140 40% 3 07.02.2027 -
Fran Vieites Walsall Ativo 116 / 113 40% 2 07.02.2027 -
Léo Ortiz Flamengo Ativo 129 / 143 40% 1 06.02.2027 -
Tomás Araújo Benfica Ativo 159 / 148 40% 1 06.02.2027 -
Folarin Balogun Monaco Ativo 126 / 133 40% 2 02.02.2027 -
Esteban Lepaul Stade Rennais Ativo 148 / 143 40% 2 02.02.2027 -
Geny Sporting CP Ativo 141 / 135 40% 1 30.01.2027 -
Amine Gouiri Olympique de Marseille Ativo 155 / 136 40% 4 28.01.2027 -
Yoane Wissa Newcastle United Ativo 145 / 136 40% 4 27.01.2027 -
Petar Musa FC Dallas Ativo 124 / 140 40% 2 27.01.2027 -
Hamza Igamane LOSC Lille Ativo 147 / 142 40% 2 25.01.2027 -
Alexey Miranchuk Atlanta United FC Ativo 127 / 134 40% 4 21.01.2027 -
Nordi Mukiele Sunderland Ativo 161 / 150 40% 2 18.01.2027 -
Luís Esteves Atlas Ativo 148 / 126 40% 1 18.01.2027 -
André Wolverhampton Ativo 133 / 144 40% 1 14.01.2027 -
Memphis Depay Corinthians Ativo 145 / 144 40% 1 09.01.2027 -
Mario Dorgeles Braga Ativo 133 / 138 40% 1 08.01.2027 -
Matheuzinho Corinthians Ativo 126 / 132 40% 1 05.01.2027 -
Pepê Porto Ativo 148 / 138 40% 3 31.12.2026 -
Lukas Jensen Millwall Ativo 114 / 124 40% 1 26.12.2026 -
Wesley Saïd RC Lens Ativo 139 / 136 40% 1 22.12.2026 -
Gustavo Cazonatti Mirassol Ativo 110 / 122 51% 1 21.12.2026 -
Dwight McNeil Crystal Palace Ativo 127 / 137 40% 1 21.12.2026 -
Leo Ceara Kashima Antlers Ativo 157 / 139 40% 2 14.12.2026 -
Yehvann Diouf OGC Nice Ativo 147 / 132 40% 1 07.12.2026 -
Anthony Patterson Wrexham Ativo 114 / 135 40% 1 07.12.2026 -
Marinho Vitória Perdido 139 / 123 51% 1 02.12.2026 -
Odsonne Édouard Olympique Lyonnais Ativo 149 / 141 40% 1 29.11.2026 -
Gérson Cruzeiro Ativo 152 / 139 40% 1 28.11.2026 -
Heorhii Sudakov Benfica Ativo 138 / 152 40% 1 27.11.2026 -
Martinelli Fluminense Ativo 133 / 144 40% 2 25.11.2026 -
Dodi Lukébakio Benfica Ativo 127 / 139 40% 7 24.11.2026 -
Caio Alexandre Bahia Ativo 139 / 140 40% 1 22.11.2026 -
Luis Quintero Torreense Ativo 136 / 129 40% 1 18.11.2026 -
Victor Froholdt Porto Ativo 136 / 152 40% 1 18.11.2026 -
Samuel Dahl Benfica Ativo 126 / 136 40% 1 15.11.2026 -
Dominic Solanke Tottenham Ativo 139 / 153 40% 1 12.11.2026 -
Alejandro Zendejas Club America Ativo 134 / 144 40% 1 07.11.2026 -
Mathys Tel Tottenham Ativo 152 / 146 40% 1 30.10.2026 -
Alan Varela Porto Ativo 128 / 138 40% 2 29.10.2026 -
Agustín Palavecino Cruz Azul Ativo 150 / 133 40% 1 28.10.2026 -
Rodrigo Garro Corinthians Ativo 132 / 130 40% 1 25.10.2026 -
Alberto Costa Porto Ativo 130 / 135 40% 2 24.10.2026 -
Lucas Paquetá Flamengo Ativo 143 / 143 40% 1 22.10.2026 -
Noah Okafor Leeds United Ativo 136 / 141 40% 2 20.10.2026 -
Donyell Malen AS Roma Ativo 142 / 147 40% 2 13.10.2026 -
Pau Víctor Braga Ativo 120 / 131 40% 1 10.10.2026 -
Michael Cooper Sheffield United Ativo 131 / 128 40% 1 10.10.2026 -
Emanuel Emegha Chelsea Ativo 122 / 143 40% 1 09.10.2026 -
Eddie Nketiah Crystal Palace Ativo 121 / 132 40% 1 09.10.2026 -
Nicolás de la Cruz Flamengo Ativo 136 / 132 40% 1 08.10.2026 -
Allan Saint-Maximin Charlotte Football Club Ativo 149 / 132 40% 1 08.10.2026 -
Alexis Vega Feyenoord Ativo 145 / 138 40% 2 05.10.2026 -
Renan Lodi Atlético Mineiro Ativo 140 / 138 40% 1 04.10.2026 -
Erik Lira Cruz Azul Ativo 135 / 135 40% 1 04.10.2026 -
Kasper Dolberg Ajax Ativo 146 / 134 40% 1 01.10.2026 -
Iván Fresneda Sporting CP Ativo 121 / 140 40% 3 27.09.2026 -
Hwang In-Beom Porto Ativo 150 / 148 40% 1 27.09.2026 -
Cristian Uribe Monaco Ativo 166 / 145 40% 1 27.09.2026 -
Manuel Roffo Hajduk Split Ativo 133 / 121 40% 1 21.09.2026 -
Álvaro Martínez Moreirense Ativo 105 / 108 40% 1 12.09.2026 -
Nicolò Zaniolo Udinese Ativo 124 / 148 40% 2 10.09.2026 -
Matheus Pereira Cruzeiro Ativo 145 / 137 40% 1 05.09.2026 -
Mateja Stjepanović Moreirense Ativo 115 / 131 40% 1 02.09.2026 -
Andreas Schjelderup Benfica Ativo 122 / 143 40% 1 02.09.2026 -
William Gomes Porto Ativo 121 / 145 40% 2 28.08.2026 -
Igor Paixão Olympique de Marseille Ativo 134 / 142 40% 1 22.08.2026 -
Ricardo Horta Braga Ativo 133 / 145 40% 1 19.08.2026 -
Joshua Zirkzee Manchester United Ativo 129 / 140 40% 3 18.08.2026 -
Lisandro Martínez Ajax Ativo 151 / 158 40% 1 18.08.2026 -
Ayase Ueda LOSC Lille Ativo 150 / 139 40% 1 18.08.2026 -
Luis Suárez Sporting CP Ativo 172 / 161 40% 1 08.08.2026 -
Pau Torres Aston Villa Ativo 146 / 149 40% 1 07.08.2026 -
Christian Pulisic AC Milan Ativo 179 / 162 40% 1 02.08.2026 -